Porterville, Mississippi
Current Conditions -  °F | °C
As of 3:56 PM on Monday 20 Oct 2014 (Local Time) from KNMM Reporting Station
Broken Clouds Broken Clouds  
Wind Chill: 74°   Ceiling: 30000
Heat Index: 74°   Visibility: 10mi
Dew Point: 49°   Wind: 3mph
Humidity: 41%   Direction: 270°W
Pressure: 30.01"   Gusts: NA
Location:  32.69°N, 88.47°W
Report Text: KNMM 202056Z 27003KT 10SM BKN300 23/09 A3001 RMK AO2 SLP172 T02330094 56019 $
Loading
Personal Weather Stations






























Interactive Weather Map
Tropical Storm Tracking
New forecast layout! Learn more

10-Day Weather Forecast

Advertisements
Track Severe Weather on mobile